Time;durP1;ratioP1;P1;durP2;ratioP2;P2;SDS_P1;SDS_P2;PMS_P1;PMS_P2;Temp;Humidity;BMP_temperature;BMP_pressure;BME280_temperature;BME280_humidity;BME280_pressure;Samples;Min_cycle;Max_cycle;Signal;HPM_P1;HPM_P2
2022/06/23 00:01:41;;;;;;;17.75;11.60;;;21.50;99.90;;;21.28;69.48;101041.44;5119027;28;20093;-61
2022/06/23 00:04:14;;;;;;;15.48;11.20;;;21.50;99.90;;;21.79;69.59;101149.47;5101096;28;20408;-61
2022/06/23 00:06:47;;;;;;;20.70;10.93;;;21.40;99.90;;;21.69;69.65;101142.75;5119459;28;20491;-61
2022/06/23 00:09:37;;;;;;;16.13;10.68;;;21.30;99.90;;;21.70;69.72;101140.94;5118810;28;20048;-61
2022/06/23 00:12:27;;;;;;;15.88;10.55;;;21.30;99.90;;;21.15;69.67;101054.59;5119184;28;20071;-61
2022/06/23 00:15:19;;;;;;;16.00;9.75;;;21.30;99.90;;;21.66;69.75;101134.78;5119334;28;20040;-60
2022/06/23 00:17:58;;;;;;;21.25;10.35;;;21.30;99.90;;;21.54;69.70;101136.22;5118732;28;20126;-61
2022/06/23 00:20:33;;;;;;;14.40;10.05;;;21.20;99.90;;;21.46;69.42;101127.63;5118706;28;20067;-61
2022/06/23 00:23:11;;;;;;;16.77;10.55;;;21.20;99.90;;;21.53;69.65;101131.78;5118899;28;20043;-61
2022/06/23 00:25:46;;;;;;;12.15;9.02;;;21.10;99.90;;;21.48;69.81;101117.69;5118535;28;20044;-61
2022/06/23 00:28:23;;;;;;;15.40;10.20;;;21.10;99.90;;;21.41;69.86;101129.63;5118553;28;20087;-61
2022/06/23 00:30:56;;;;;;;14.50;9.65;;;21.00;99.90;;;21.22;70.37;101120.66;5118512;28;20044;-61
2022/06/23 00:33:29;;;;;;;20.60;10.00;;;20.90;99.90;;;21.21;70.33;101120.72;5118822;28;20056;-62
2022/06/23 00:35:59;;;;;;;15.93;10.13;;;20.80;99.90;;;20.73;71.23;101110.19;5118752;28;20409;-60
2022/06/23 00:38:32;;;;;;;12.80;9.75;;;20.60;99.90;;;20.65;71.67;101099.78;5117611;28;20040;-60
2022/06/23 00:41:02;;;;;;;14.85;9.55;;;20.40;99.90;;;20.64;71.48;101081.03;5115125;28;20096;-61
2022/06/23 00:43:31;;;;;;;17.58;10.30;;;20.50;99.90;;;20.63;72.21;101116.94;5115539;28;20469;-63
2022/06/23 00:46:09;;;;;;;12.48;10.43;;;20.30;99.90;;;20.79;71.91;101117.16;5115623;28;20050;-61
2022/06/23 00:48:44;;;;;;;19.27;10.15;;;20.40;99.90;;;20.85;71.90;101104.31;5115211;28;20046;-61
2022/06/23 00:51:19;;;;;;;18.02;10.35;;;20.40;99.90;;;20.91;71.61;101111.22;5115374;28;20071;-64
2022/06/23 00:53:56;;;;;;;13.35;10.20;;;20.50;99.90;;;20.89;71.51;101105.94;5115131;28;20504;-61
2022/06/23 00:56:39;;;;;;;18.30;11.05;;;20.50;99.90;;;20.81;71.44;101112.59;5115098;28;20469;-61
2022/06/23 00:59:15;;;;;;;15.57;10.57;;;20.50;99.90;;;20.69;71.53;101103.22;5115260;28;20469;-62
2022/06/23 01:01:49;;;;;;;16.85;10.48;;;20.40;99.90;;;20.78;71.67;101105.53;5096859;28;20077;-61
2022/06/23 01:04:29;;;;;;;18.90;11.48;;;20.40;99.90;;;20.64;72.14;101099.84;5115227;28;20404;-62
2022/06/23 01:07:03;;;;;;;17.73;10.83;;;20.30;99.90;;;20.72;72.06;101105.78;5114909;28;20051;-61
2022/06/23 01:09:39;;;;;;;13.60;10.02;;;20.30;99.90;;;20.72;72.21;101104.91;5115288;28;20309;-61
2022/06/23 01:12:21;;;;;;;19.33;11.90;;;20.30;99.90;;;20.59;72.31;101102.75;5114990;28;20043;-61
2022/06/23 01:14:56;;;;;;;15.25;10.23;;;20.30;99.90;;;20.51;72.68;101102.19;5114929;28;20059;-61
2022/06/23 01:17:29;;;;;;;16.75;11.38;;;20.20;99.90;;;20.37;72.92;101109.03;5115184;28;20051;-61
2022/06/23 01:20:21;;;;;;;15.10;11.55;;;20.10;99.90;;;20.51;72.91;101110.25;5114964;28;20044;-61
2022/06/23 01:23:07;;;;;;;16.60;10.70;;;20.10;99.90;;;20.39;72.84;101116.13;5096104;28;20485;-61
2022/06/23 01:25:54;;;;;;;16.60;9.88;;;20.10;99.90;;;20.46;73.05;101114.91;5114472;28;20081;-61
2022/06/23 01:28:26;;;;;;;14.07;10.38;;;20.10;99.90;;;20.50;73.03;101110.28;5114693;28;20071;-61
2022/06/23 01:31:00;;;;;;;15.93;10.23;;;20.10;99.90;;;20.35;73.30;101109.13;5114443;28;20063;-61
2022/06/23 01:33:37;;;;;;;15.52;10.55;;;20.00;99.90;;;20.47;73.16;101110.44;5114277;28;20064;-60
2022/06/23 01:36:14;;;;;;;15.57;10.25;;;20.10;99.90;;;20.58;73.06;101116.22;5114206;28;20071;-60
2022/06/23 01:38:55;;;;;;;15.18;10.65;;;20.20;99.90;;;20.51;73.04;101118.31;5096057;28;20457;-61
2022/06/23 01:41:26;;;;;;;;;;;20.20;99.90;;;20.43;73.36;101111.50;5115153;28;20048;-60
2022/06/23 01:44:07;;;;;;;18.65;11.05;;;20.10;99.90;;;20.39;73.40;101112.53;5114073;28;19955;-60
2022/06/23 01:46:37;;;;;;;;;;;20.10;99.90;;;20.29;73.54;101106.69;5114534;28;20430;-60
2022/06/23 01:49:14;;;;;;;18.53;10.73;;;20.00;99.90;;;20.20;73.58;101082.88;5113936;28;20365;-61
2022/06/23 01:51:49;;;;;;;15.40;10.63;;;20.00;99.90;;;20.25;73.32;101075.50;5113726;28;20512;-60
2022/06/23 01:54:25;;;;;;;16.95;10.20;;;20.00;99.90;;;20.42;73.55;101099.00;5113784;28;20044;-60
2022/06/23 01:57:04;;;;;;;16.63;10.75;;;20.00;99.90;;;20.44;73.19;101089.06;5114016;28;20067;-60
2022/06/23 01:59:52;;;;;;;16.42;10.45;;;20.10;99.90;;;20.45;73.03;101097.06;5114214;28;20044;-60
2022/06/23 02:02:33;;;;;;;16.63;10.93;;;20.10;99.90;;;20.36;73.53;101086.66;5113594;28;20044;-60
2022/06/23 02:05:12;;;;;;;15.57;10.55;;;20.00;99.90;;;20.18;73.51;101086.53;5113630;28;20126;-61
2022/06/23 02:08:01;;;;;;;15.77;10.45;;;20.00;99.90;;;20.35;73.72;101078.69;5113986;28;20081;-60
2022/06/23 02:10:36;;;;;;;15.43;10.48;;;20.00;99.90;;;20.33;73.84;101077.88;5113456;28;20039;-60
2022/06/23 02:13:18;;;;;;;13.18;9.57;;;20.00;99.90;;;20.33;73.80;101075.19;5113496;28;20074;-60
2022/06/23 02:16:00;;;;;;;16.25;10.88;;;20.00;99.90;;;20.22;74.11;101075.63;5113722;28;20126;-60
2022/06/23 02:18:35;;;;;;;14.18;10.30;;;19.90;99.90;;;20.23;74.27;101085.44;5113272;28;20047;-60
2022/06/23 02:21:21;;;;;;;16.15;10.80;;;19.90;99.90;;;20.01;74.75;101083.63;5113067;28;20039;-60
2022/06/23 02:23:55;;;;;;;15.50;10.98;;;19.70;99.90;;;19.91;74.83;101088.50;5113782;28;20096;-60
2022/06/23 02:26:31;;;;;;;18.17;10.68;;;19.70;99.90;;;19.97;75.10;101092.75;5113461;28;20063;-60
2022/06/23 02:29:06;;;;;;;14.25;10.85;;;19.60;99.90;;;19.91;75.17;101090.28;5113090;28;20108;-60
2022/06/23 02:31:43;;;;;;;23.33;11.70;;;19.60;99.90;;;20.04;75.26;101088.88;5113321;28;20462;-60
2022/06/23 02:34:19;;;;;;;15.55;10.93;;;19.60;99.90;;;19.78;75.67;101081.88;5113147;28;20126;-60
2022/06/23 02:37:47;;;;;;;16.55;11.52;;;19.50;99.90;;;19.78;75.92;101079.19;5113265;28;20105;-60
2022/06/23 02:40:22;;;;;;;15.05;11.05;;;19.40;99.90;;;19.84;75.85;101081.59;5113022;28;20036;-60
2022/06/23 02:42:55;;;;;;;15.35;10.35;;;19.40;99.90;;;19.80;75.92;101071.94;5113815;28;20066;-60
2022/06/23 02:45:51;;;;;;;14.35;10.00;;;19.40;99.90;;;19.88;75.85;101064.44;5113252;28;20078;-61
2022/06/23 02:48:46;;;;;;;15.70;11.32;;;19.40;99.90;;;19.85;75.64;101058.31;5112834;28;20047;-60
2022/06/23 02:51:41;;;;;;;18.48;11.43;;;19.50;99.90;;;19.82;75.81;101062.03;5112820;28;20071;-61
2022/06/23 02:54:33;;;;;;;15.88;11.07;;;19.40;99.90;;;19.74;76.02;101058.75;5113185;28;20130;-61
2022/06/23 02:57:28;;;;;;;16.80;11.38;;;19.40;99.90;;;19.58;76.04;101058.47;5112979;28;20131;-60
2022/06/23 03:00:04;;;;;;;15.52;12.10;;;19.30;99.90;;;19.48;76.71;101062.44;5113289;28;20073;-60
2022/06/23 03:02:38;;;;;;;20.70;11.43;;;19.20;99.90;;;19.62;76.67;101060.09;5112748;28;20435;-60
2022/06/23 03:05:19;;;;;;;15.27;11.13;;;19.20;99.90;;;19.64;76.68;101057.34;5112752;28;20062;-60
2022/06/23 03:07:56;;;;;;;14.48;10.77;;;19.30;99.90;;;19.63;76.57;101063.63;5112758;28;20126;-60
2022/06/23 03:10:32;;;;;;;17.88;11.65;;;19.30;99.90;;;19.57;76.40;101048.66;5112825;28;20055;-60
2022/06/23 03:13:10;;;;;;;16.10;10.65;;;19.30;99.90;;;19.61;76.40;101050.28;5112769;28;20058;-61
2022/06/23 03:15:45;;;;;;;14.50;11.05;;;19.20;99.90;;;19.62;76.37;101053.84;5112640;28;20493;-60
2022/06/23 03:18:23;;;;;;;15.57;11.05;;;19.20;99.90;;;19.49;76.59;101036.47;5112395;28;20130;-60
2022/06/23 03:20:59;;;;;;;16.27;10.63;;;19.20;99.90;;;19.62;76.49;101052.06;5112178;28;20088;-60
2022/06/23 03:23:34;;;;;;;15.52;11.55;;;19.20;99.90;;;19.62;76.34;101038.63;5112285;28;20158;-60
2022/06/23 03:26:25;;;;;;;16.88;10.90;;;19.30;99.90;;;19.70;76.05;101041.88;5112308;28;20512;-60
2022/06/23 03:29:00;;;;;;;18.58;11.70;;;19.30;99.90;;;19.66;76.13;101042.06;5112157;28;20044;-60
2022/06/23 03:31:36;;;;;;;17.52;11.38;;;19.30;99.90;;;19.59;76.12;101037.84;5112718;28;20070;-60
2022/06/23 03:34:15;;;;;;;16.95;11.50;;;19.20;99.90;;;19.63;76.20;101034.13;5112195;28;20074;-60
2022/06/23 03:36:51;;;;;;;15.38;11.93;;;19.30;99.90;;;19.51;76.20;101034.63;5112827;28;20113;-60
2022/06/23 03:42:23;;;;;;;17.88;11.60;;;19.20;99.90;;;19.59;75.92;101033.38;5112458;28;20450;-61
2022/06/23 03:44:58;;;;;;;17.33;10.93;;;19.20;99.90;;;19.58;76.24;101026.25;5112495;28;20067;-60
2022/06/23 03:47:41;;;;;;;16.27;10.85;;;19.20;99.90;;;19.65;76.08;101027.75;5112186;28;20039;-60
2022/06/23 03:50:23;;;;;;;14.40;10.98;;;19.30;99.90;;;19.67;75.76;101022.31;5112382;28;20454;-61
2022/06/23 03:52:58;;;;;;;16.38;11.93;;;19.30;99.90;;;19.61;75.37;101001.09;5112138;28;20047;-60
2022/06/23 03:55:30;;;;;;;15.07;11.48;;;19.30;99.90;;;19.69;75.51;101015.09;5094019;28;20051;-60
2022/06/23 03:58:04;;;;;;;16.67;11.20;;;19.30;99.90;;;19.59;75.48;101033.38;5112376;28;20044;-60
2022/06/23 04:00:38;;;;;;;15.18;10.98;;;19.30;99.90;;;19.60;75.50;101018.16;5112106;28;20101;-60
2022/06/23 04:03:19;;;;;;;18.75;11.27;;;19.20;99.90;;;19.45;75.37;100995.44;5112134;28;20043;-60
2022/06/23 04:06:24;;;;;;;14.07;10.10;;;19.20;99.90;;;19.74;75.24;101029.22;5112354;28;20035;-61
2022/06/23 04:09:01;;;;;;;17.35;10.38;;;19.30;99.90;;;19.68;74.97;101024.09;5112287;28;20096;-60
2022/06/23 04:11:44;;;;;;;16.35;10.45;;;19.30;99.90;;;19.71;75.08;101008.72;5112369;28;20426;-60
2022/06/23 04:14:44;;;;;;;14.63;11.00;;;19.40;99.90;;;19.75;74.79;101013.03;5113432;28;20043;-60
2022/06/23 04:17:20;;;;;;;14.38;10.07;;;19.40;99.90;;;19.87;74.52;101011.69;5116155;28;20484;-60
2022/06/23 04:19:53;;;;;;;15.65;11.07;;;19.50;99.90;;;19.76;74.55;101000.50;5097719;28;20110;-60
2022/06/23 04:22:28;;;;;;;15.30;10.93;;;19.40;99.90;;;19.89;74.33;101015.19;5116071;28;20439;-60
2022/06/23 04:25:03;;;;;;;17.38;10.90;;;19.50;99.90;;;19.60;74.41;100991.31;5115954;28;20044;-60
2022/06/23 04:27:40;;;;;;;14.70;11.88;;;19.40;99.90;;;19.69;74.49;101005.22;5115905;28;20074;-60
2022/06/23 04:30:33;;;;;;;16.70;11.45;;;19.40;99.90;;;19.71;74.65;101015.91;5115491;28;20044;-60
2022/06/23 04:33:05;;;;;;;18.77;11.93;;;19.40;99.90;;;19.73;74.54;101008.66;5115959;28;20054;-60
2022/06/23 04:35:36;;;;;;;17.85;11.35;;;19.40;99.90;;;19.64;74.39;100983.09;5115604;28;20462;-60
2022/06/23 04:38:15;;;;;;;16.45;11.32;;;19.40;99.90;;;19.61;74.39;101007.34;5097238;28;20539;-60
2022/06/23 04:40:50;;;;;;;14.00;11.50;;;19.40;99.90;;;19.45;75.43;101002.66;5115203;28;20082;-60
2022/06/23 04:43:27;;;;;;;20.30;12.10;;;19.20;99.90;;;19.24;75.60;101011.47;5115762;28;20485;-61
2022/06/23 04:46:01;;;;;;;18.98;12.15;;;19.00;99.90;;;19.12;77.13;101004.78;5115727;28;20382;-61
2022/06/23 04:48:35;;;;;;;19.58;12.27;;;18.80;99.90;;;19.17;76.29;101023.34;5115455;28;20067;-60
2022/06/23 04:51:09;;;;;;;16.50;12.35;;;18.80;99.90;;;18.94;78.01;101021.53;5115010;28;20123;-60
2022/06/23 04:53:52;;;;;;;18.15;12.32;;;18.60;99.90;;;18.89;78.44;101027.03;5115278;28;20042;-61
2022/06/23 04:56:34;;;;;;;17.05;13.35;;;18.50;99.90;;;18.40;80.34;101042.16;5114848;28;20122;-60
2022/06/23 04:59:17;;;;;;;15.38;12.77;;;18.10;99.90;;;18.26;81.88;101039.94;5114825;28;20459;-60
2022/06/23 05:01:49;;;;;;;19.35;12.32;;;17.90;99.90;;;18.64;81.11;101023.47;5115000;28;20075;-60
2022/06/23 05:04:23;;;;;;;16.98;13.20;;;18.10;99.90;;;18.86;80.18;101028.97;5115173;28;20040;-60
2022/06/23 05:06:55;;;;;;;20.20;14.05;;;18.40;99.90;;;19.00;79.30;101020.41;5114737;28;20306;-60
2022/06/23 05:09:30;;;;;;;19.25;14.13;;;18.60;99.90;;;18.99;78.63;101003.44;5114806;28;20063;-60
2022/06/23 05:12:04;;;;;;;17.33;12.18;;;18.70;99.90;;;19.06;78.29;101021.06;5114868;28;20104;-61
2022/06/23 05:14:39;;;;;;;21.23;13.25;;;18.70;99.90;;;19.23;78.69;101015.97;5115076;28;20122;-60
2022/06/23 05:17:15;;;;;;;15.32;12.50;;;18.80;99.90;;;19.36;77.91;101022.63;5114955;28;20035;-60
2022/06/23 05:19:43;;;;;;;21.10;12.70;;;19.00;99.90;;;19.19;78.33;101026.84;5114725;28;20386;-61
2022/06/23 05:22:27;;;;;;;20.50;13.13;;;18.90;99.90;;;18.57;80.27;101021.94;5114548;28;20075;-61
2022/06/23 05:24:58;;;;;;;20.70;13.32;;;18.40;99.90;;;18.83;80.60;101034.44;5114011;28;20052;-60
2022/06/23 05:27:33;;;;;;;18.15;13.02;;;18.40;99.90;;;18.47;81.50;101041.06;5114293;28;20048;-60
2022/06/23 05:30:25;;;;;;;20.45;14.40;;;18.20;99.90;;;18.37;81.81;101028.91;5114201;28;20067;-60
2022/06/23 05:32:57;;;;;;;18.67;13.00;;;18.10;99.90;;;18.70;81.96;101033.09;5114482;28;20117;-60
2022/06/23 05:35:30;;;;;;;19.52;13.45;;;18.20;99.90;;;18.93;80.59;101052.81;5114469;28;20039;-60
2022/06/23 05:38:04;;;;;;;21.65;13.98;;;18.60;99.90;;;18.83;80.97;101026.41;5114112;28;20044;-60
2022/06/23 05:40:39;;;;;;;24.58;13.98;;;18.60;99.90;;;18.78;80.94;101036.38;5095988;28;20047;-60
2022/06/23 05:43:12;;;;;;;22.48;13.60;;;18.40;99.90;;;18.85;80.58;101038.78;5114641;28;20071;-60
2022/06/23 05:45:45;;;;;;;22.17;13.10;;;18.50;99.90;;;19.19;80.55;101032.22;5114623;28;20047;-60
2022/06/23 05:48:19;;;;;;;18.85;13.30;;;18.70;99.90;;;19.51;79.22;101023.88;5114265;28;20067;-60
2022/06/23 05:50:54;;;;;;;17.73;13.20;;;19.00;99.90;;;19.64;77.68;101026.03;5095792;28;20142;-60
2022/06/23 05:53:28;;;;;;;20.48;13.45;;;19.20;99.90;;;19.10;77.44;100976.25;5114302;28;20066;-60
2022/06/23 05:56:00;;;;;;;25.08;12.85;;;19.20;99.90;;;19.74;77.52;101027.38;5114549;28;20167;-61
2022/06/23 05:58:41;;;;;;;18.85;12.27;;;19.30;99.90;;;19.71;76.51;101032.00;5114001;28;20112;-60
2022/06/23 06:01:17;;;;;;;19.00;12.30;;;19.30;99.90;;;19.63;77.24;101018.00;5114683;28;20096;-60
2022/06/23 06:03:54;;;;;;;20.42;12.18;;;19.30;99.90;;;19.90;74.69;101022.28;5113992;28;20035;-60
2022/06/23 06:06:23;;;;;;;16.60;12.88;;;19.50;99.90;;;19.42;75.62;101024.22;5113904;28;20123;-60
2022/06/23 06:11:46;;;;;;;21.50;12.05;;;19.00;99.90;;;19.78;76.72;101017.44;5113458;28;20548;-60
2022/06/23 06:14:19;;;;;;;16.63;12.43;;;19.20;99.90;;;19.53;75.90;100990.66;5113422;28;20075;-60
2022/06/23 06:16:48;;;;;;;15.73;11.50;;;19.30;99.90;;;20.15;75.32;101011.44;5113364;28;20466;-60
2022/06/23 06:19:19;;;;;;;23.48;12.02;;;19.60;99.90;;;20.16;73.87;101010.50;5113359;28;20044;-60
2022/06/23 06:21:49;;;;;;;18.20;12.48;;;19.70;99.90;;;20.33;71.87;101000.81;5094974;28;20370;-60
2022/06/23 06:24:25;;;;;;;19.97;12.33;;;19.90;99.90;;;20.40;71.35;101004.97;5113185;28;20501;-61
2022/06/23 06:26:55;;;;;;;19.80;12.10;;;20.00;99.90;;;20.49;70.84;101012.69;5113459;28;20100;-60
2022/06/23 06:29:27;;;;;;;;;;;20.10;99.90;;;20.55;70.33;101000.78;5113375;28;20100;-60
2022/06/23 06:32:15;;;;;;;19.27;12.10;;;20.20;99.90;;;20.60;70.86;100988.00;5113358;28;19951;-60
2022/06/23 06:34:50;;;;;;;17.40;11.82;;;20.20;99.90;;;20.96;69.67;100974.75;5113204;28;20468;-61
2022/06/23 06:37:20;;;;;;;17.95;11.95;;;20.50;99.90;;;21.09;68.62;100976.84;5112678;28;20055;-61
2022/06/23 06:39:52;;;;;;;24.30;12.73;;;20.70;99.90;;;20.73;68.21;100985.66;5113554;28;20117;-61
2022/06/23 06:42:25;;;;;;;17.17;12.48;;;20.50;99.90;;;20.21;69.84;100989.72;5112775;28;20469;-60
2022/06/23 06:45:10;;;;;;;15.20;12.07;;;20.00;99.90;;;20.40;71.25;100996.91;5094752;28;20050;-60
2022/06/23 06:47:40;;;;;;;17.77;12.05;;;20.10;99.90;;;20.53;71.13;100995.47;5113003;28;20131;-61
2022/06/23 06:50:28;;;;;;;17.58;11.80;;;20.10;99.90;;;20.50;70.79;101013.53;5113085;28;20044;-60
2022/06/23 06:52:58;;;;;;;15.90;12.63;;;20.10;99.90;;;20.40;70.71;101045.28;5112973;28;20078;-61
2022/06/23 06:55:34;;;;;;;20.95;12.45;;;20.10;99.90;;;20.28;70.99;101021.66;5112821;28;20032;-60
2022/06/23 06:58:10;;;;;;;18.40;12.48;;;20.00;99.90;;;20.51;71.12;101026.03;5112695;28;20143;-61
2022/06/23 07:00:45;;;;;;;18.15;13.25;;;20.00;99.90;;;20.36;71.04;101027.56;5112648;28;20097;-61
2022/06/23 07:03:16;;;;;;;17.15;13.10;;;20.00;99.90;;;20.52;71.41;101017.91;5112655;28;20040;-60
2022/06/23 07:05:53;;;;;;;20.88;12.95;;;20.00;99.90;;;20.87;71.74;101018.19;5112742;28;20042;-61
2022/06/23 07:08:27;;;;;;;19.60;13.80;;;20.30;99.90;;;20.69;70.63;101011.81;5112622;28;20074;-61
2022/06/23 07:11:01;;;;;;;22.52;13.60;;;20.30;99.90;;;20.64;70.71;101014.69;5113256;28;20043;-61
2022/06/23 07:13:36;;;;;;;21.00;12.57;;;20.30;99.90;;;21.11;71.83;101022.50;5113004;28;20069;-61
2022/06/23 07:16:14;;;;;;;18.35;12.82;;;20.50;99.90;;;21.37;69.74;101020.38;5112543;28;20047;-61
2022/06/23 07:18:52;;;;;;;15.25;12.25;;;20.90;99.90;;;21.56;68.50;101020.41;5112753;28;20031;-61
2022/06/23 07:21:25;;;;;;;15.30;12.25;;;21.20;99.90;;;21.35;69.26;101016.88;5112511;28;20113;-60
2022/06/23 07:24:05;;;;;;;22.13;13.25;;;21.00;99.90;;;21.22;68.24;101006.75;5112307;28;20464;-60
2022/06/23 07:26:43;;;;;;;19.05;12.88;;;20.90;99.90;;;21.41;70.59;101004.94;5112350;28;20458;-60
2022/06/23 07:29:24;;;;;;;18.90;12.98;;;20.90;99.90;;;21.34;68.40;101015.13;5112539;28;20543;-61
2022/06/23 07:32:05;;;;;;;17.63;13.27;;;20.90;99.90;;;21.64;68.55;101020.88;5112376;28;20039;-61
2022/06/23 07:34:40;;;;;;;15.50;13.32;;;21.10;99.90;;;21.78;68.97;101010.34;5112538;28;20054;-61
2022/06/23 07:37:19;;;;;;;24.88;13.13;;;21.30;99.90;;;21.78;67.99;101010.34;5094389;28;20545;-61
2022/06/23 07:39:54;;;;;;;21.80;12.77;;;21.40;99.90;;;22.11;67.03;101008.72;5112480;28;20059;-61
2022/06/23 07:42:39;;;;;;;16.98;12.77;;;21.60;99.90;;;22.27;65.51;101004.31;5112703;28;20473;-61
2022/06/23 07:45:13;;;;;;;14.77;12.93;;;21.90;99.90;;;22.33;64.26;101001.31;5094046;28;20116;-60
2022/06/23 07:47:43;;;;;;;17.48;12.65;;;22.00;99.90;;;22.20;64.26;101002.00;5112375;28;20108;-60
2022/06/23 07:50:12;;;;;;;19.73;12.45;;;21.90;99.90;;;22.18;66.00;101009.31;5116597;28;20408;-61
2022/06/23 07:52:42;;;;;;;20.58;12.68;;;21.80;99.90;;;21.97;64.66;101011.22;5116082;28;20043;-61
2022/06/23 07:55:21;;;;;;;15.60;11.60;;;21.60;99.90;;;22.04;65.35;101017.19;5116360;28;20047;-60
2022/06/23 07:58:10;;;;;;;17.65;11.85;;;21.70;99.90;;;22.35;65.25;101023.69;5097919;28;20300;-60
2022/06/23 08:00:42;;;;;;;16.45;12.00;;;21.80;99.90;;;22.44;65.99;101028.59;5116109;28;20475;-61
2022/06/23 08:03:15;;;;;;;26.75;12.07;;;22.00;99.90;;;22.58;65.62;101030.63;5115885;28;20555;-60
2022/06/23 08:05:52;;;;;;;17.73;12.38;;;22.10;99.90;;;22.45;65.61;101030.34;5115897;28;20523;-60
2022/06/23 08:08:25;;;;;;;15.52;12.43;;;22.00;99.90;;;22.86;66.96;101022.00;5116501;28;20048;-61
2022/06/23 08:13:41;;;;;;;19.25;13.05;;;22.50;99.90;;;22.94;63.69;101027.81;5115121;28;20538;-60
2022/06/23 08:19:28;;;;;;;17.13;12.48;;;22.80;99.90;;;22.92;63.59;100948.78;5052680;28;20114;-61
2022/06/23 08:22:05;;;;;;;17.92;13.18;;;22.80;99.90;;;23.31;63.18;101014.13;5052640;28;20088;-61
2022/06/23 08:24:38;;;;;;;21.60;13.27;;;22.90;99.90;;;23.44;62.44;101006.25;5092023;28;20134;-61
2022/06/23 08:27:14;;;;;;;15.93;12.00;;;23.00;99.90;;;23.70;63.60;101014.66;5115725;28;20051;-61
2022/06/23 08:29:46;;;;;;;17.88;11.85;;;23.20;99.90;;;24.08;62.33;101004.38;5115446;28;20139;-61
2022/06/23 08:32:15;;;;;;;24.55;12.40;;;23.60;99.90;;;24.38;61.43;101002.59;5116024;28;20131;-61
2022/06/23 08:34:55;;;;;;;17.60;12.30;;;23.90;99.90;;;24.31;61.83;101003.06;5115613;28;20084;-61
2022/06/23 08:37:25;;;;;;;17.33;13.48;;;24.00;99.90;;;23.94;60.99;100998.88;5115641;28;20429;-60
2022/06/23 08:39:59;;;;;;;19.65;11.82;;;23.60;99.90;;;24.02;62.24;101004.75;5115720;28;20074;-60
2022/06/23 08:42:35;;;;;;;19.45;13.52;;;23.60;99.90;;;23.95;62.37;101001.50;5115284;28;20089;-61
2022/06/23 08:45:19;;;;;;;20.30;12.95;;;23.50;99.90;;;23.88;61.86;100977.59;5115256;28;20152;-61
2022/06/23 08:47:53;;;;;;;18.05;13.02;;;23.60;99.90;;;23.93;64.01;101005.22;5115288;28;20044;-61
2022/06/23 08:50:32;;;;;;;23.10;14.52;;;23.50;99.90;;;23.67;63.31;100985.13;5115232;28;20120;-61
2022/06/23 08:53:11;;;;;;;18.13;13.48;;;23.30;99.90;;;24.07;63.03;100989.13;5115152;28;20414;-61
2022/06/23 08:55:47;;;;;;;24.08;15.65;;;23.60;99.90;;;24.34;62.58;100992.03;5115666;28;20039;-61
2022/06/23 08:58:25;;;;;;;20.90;14.38;;;23.90;99.90;;;24.26;62.97;100994.31;5115306;28;20059;-61
2022/06/23 09:01:01;;;;;;;23.30;14.75;;;23.90;99.90;;;24.26;62.20;101003.31;5114088;28;20469;-61
2022/06/23 09:03:43;;;;;;;21.77;15.43;;;23.80;99.90;;;24.17;62.75;100998.44;5115330;28;20067;-61
2022/06/23 09:06:40;;;;;;;21.20;15.10;;;23.70;99.90;;;24.40;63.07;100972.75;5115574;28;20123;-61
2022/06/23 09:09:27;;;;;;;23.80;15.02;;;23.90;99.90;;;24.38;62.39;100996.31;5115097;28;20095;-61
2022/06/23 09:12:10;;;;;;;21.20;15.13;;;24.00;99.90;;;24.54;63.41;100992.63;5114606;28;20040;-61
2022/06/23 09:15:26;;;;;;;20.70;15.52;;;24.00;99.90;;;24.57;62.23;100986.13;5114571;28;20101;-61
2022/06/23 09:18:29;;;;;;;23.70;15.20;;;24.20;99.90;;;24.56;63.00;100996.09;5114532;28;20122;-61
2022/06/23 09:21:18;;;;;;;29.92;14.05;;;24.20;99.90;;;24.97;64.20;100997.16;5114289;28;20097;-62
2022/06/23 09:24:30;;;;;;;20.85;14.90;;;24.40;99.90;;;25.03;62.97;100991.38;5114256;28;20483;-61
2022/06/23 09:27:06;;;;;;;21.08;15.00;;;24.60;99.90;;;25.18;62.57;100997.69;5114869;28;20043;-61
2022/06/23 09:29:55;;;;;;;21.63;14.57;;;24.70;99.90;;;25.61;62.33;100991.28;5114281;28;20154;-61
2022/06/23 09:32:56;;;;;;;37.60;13.70;;;25.00;99.90;;;25.34;63.92;100990.31;5114066;28;20066;-61
2022/06/23 09:36:26;;;;;;;20.85;13.98;;;25.00;99.90;;;25.47;63.28;100988.63;5114447;28;20061;-61
2022/06/23 09:39:32;;;;;;;24.52;14.18;;;25.10;99.90;;;25.56;62.20;100989.84;5086202;28;20151;-61
2022/06/23 09:42:52;;;;;;;25.70;14.55;;;25.10;99.90;;;25.35;62.68;100981.25;5073485;28;20082;-61
2022/06/23 09:45:41;;;;;;;20.88;14.00;;;25.00;99.90;;;25.41;62.42;100980.88;5114046;28;20489;-61
2022/06/23 09:48:35;;;;;;;20.83;13.63;;;25.00;99.90;;;25.68;61.84;100976.41;5114009;28;20048;-61
2022/06/23 09:51:53;;;;;;;21.58;13.35;;;25.10;99.90;;;25.97;61.97;100973.59;5113796;28;20305;-61
2022/06/23 09:54:47;;;;;;;26.40;14.20;;;25.40;99.90;;;25.89;61.93;100977.69;5100788;28;20517;-61
2022/06/23 09:58:13;;;;;;;18.48;13.85;;;25.50;99.90;;;25.96;60.76;100977.28;5114254;28;20388;-61
2022/06/23 10:00:52;;;;;;;22.42;13.70;;;25.40;99.90;;;26.27;61.11;100967.00;5113723;28;20116;-61
2022/06/23 10:03:44;;;;;;;19.25;12.48;;;25.80;99.90;;;26.47;61.75;100965.66;5113700;28;20149;-61
2022/06/23 10:06:42;;;;;;;17.83;11.85;;;26.00;99.90;;;26.76;60.68;100965.44;5113891;28;20063;-61
2022/06/23 10:09:25;;;;;;;21.80;12.70;;;26.30;99.90;;;26.84;59.62;100978.47;5113636;28;20133;-61
2022/06/23 10:12:23;;;;;;;20.92;13.30;;;26.40;99.90;;;27.06;58.95;100978.66;5113555;28;20067;-61
2022/06/23 10:15:07;;;;;;;22.05;11.90;;;26.60;99.90;;;26.72;59.35;100982.03;5113878;28;20546;-60
2022/06/23 10:18:04;;;;;;;17.33;10.75;;;26.40;99.90;;;26.64;59.62;100982.53;5113884;28;20096;-61
2022/06/23 10:20:49;;;;;;;24.95;11.57;;;26.30;99.90;;;26.43;60.69;100977.69;5095473;28;20408;-61
2022/06/23 10:23:49;;;;;;;19.77;8.68;;;26.00;99.90;;;26.73;63.34;100987.34;5114113;28;20076;-61
2022/06/23 10:26:36;;;;;;;20.88;9.55;;;26.20;99.90;;;26.69;61.99;100974.91;5113309;28;20100;-61
2022/06/23 10:29:51;;;;;;;15.82;8.07;;;26.30;99.90;;;26.92;64.04;100984.22;5113118;28;20040;-61
2022/06/23 10:32:49;;;;;;;17.45;8.60;;;26.40;99.90;;;26.97;61.96;100970.31;5112919;28;20082;-61
2022/06/23 10:35:48;;;;;;;19.80;10.23;;;26.50;99.90;;;27.05;61.72;100965.19;5113303;28;20043;-61
2022/06/23 10:38:46;;;;;;;24.48;9.02;;;26.60;99.90;;;27.09;61.51;100966.72;5112942;28;20040;-61
2022/06/23 10:41:33;;;;;;;21.38;10.90;;;26.80;99.90;;;27.11;61.12;100946.63;5113244;28;20051;-61
2022/06/23 10:44:36;;;;;;;19.33;9.75;;;26.80;99.90;;;27.14;62.49;100965.41;5112854;28;20051;-61
2022/06/23 10:47:24;;;;;;;18.35;10.32;;;26.70;99.90;;;27.30;61.96;100966.06;5112843;28;20051;-61
2022/06/23 10:50:16;;;;;;;16.00;9.77;;;26.80;99.90;;;27.57;60.92;100955.94;5112839;28;20044;-61
2022/06/23 10:54:14;;;;;;;17.70;11.30;;;27.10;99.90;;;27.68;59.70;100956.00;5113187;28;20040;-61
2022/06/23 10:57:15;;;;;;;23.52;13.70;;;27.30;99.90;;;27.44;59.38;100946.94;5112928;28;20057;-61
2022/06/23 11:00:07;;;;;;;20.65;12.65;;;27.30;99.90;;;26.89;59.34;100889.38;5112531;28;20171;-61
2022/06/23 11:03:13;;;;;;;25.35;13.73;;;26.80;99.90;;;27.33;59.46;100951.44;5112613;28;20065;-61
2022/06/23 11:06:01;;;;;;;21.70;13.90;;;27.00;99.90;;;27.53;61.44;100954.41;5112468;28;20039;-61
2022/06/23 11:08:55;;;;;;;22.80;14.18;;;27.00;99.90;;;27.82;59.12;100949.53;5112751;28;20043;-61